sensor_id;sensor_type;location;lat;lon;timestamp;P1;durP1;ratioP1;P2;durP2;ratioP2
16634;SDS011;8431;52.458;9.998;2023-06-04T00:01:13;3.42;;;3.13;;
16634;SDS011;8431;52.458;9.998;2023-06-04T00:03:40;3.38;;;3.13;;
16634;SDS011;8431;52.458;9.998;2023-06-04T00:06:08;3.20;;;3.00;;
16634;SDS011;8431;52.458;9.998;2023-06-04T00:08:36;2.95;;;2.80;;
16634;SDS011;8431;52.458;9.998;2023-06-04T00:11:03;3.85;;;3.42;;
16634;SDS011;8431;52.458;9.998;2023-06-04T00:13:30;2.90;;;2.78;;
16634;SDS011;8431;52.458;9.998;2023-06-04T00:15:57;2.90;;;2.80;;
16634;SDS011;8431;52.458;9.998;2023-06-04T00:18:24;3.30;;;3.00;;
16634;SDS011;8431;52.458;9.998;2023-06-04T00:20:51;3.33;;;3.22;;
16634;SDS011;8431;52.458;9.998;2023-06-04T00:23:20;4.63;;;2.97;;
16634;SDS011;8431;52.458;9.998;2023-06-04T00:25:47;3.17;;;2.97;;
16634;SDS011;8431;52.458;9.998;2023-06-04T00:28:14;3.30;;;2.97;;
16634;SDS011;8431;52.458;9.998;2023-06-04T00:30:41;2.80;;;2.70;;
16634;SDS011;8431;52.458;9.998;2023-06-04T00:33:08;2.58;;;2.38;;
16634;SDS011;8431;52.458;9.998;2023-06-04T00:35:35;2.70;;;2.50;;
16634;SDS011;8431;52.458;9.998;2023-06-04T00:38:02;2.88;;;2.72;;
16634;SDS011;8431;52.458;9.998;2023-06-04T00:40:31;3.17;;;2.97;;
16634;SDS011;8431;52.458;9.998;2023-06-04T00:42:58;2.50;;;2.40;;
16634;SDS011;8431;52.458;9.998;2023-06-04T00:45:25;2.70;;;2.60;;
16634;SDS011;8431;52.458;9.998;2023-06-04T00:47:56;2.80;;;2.60;;
16634;SDS011;8431;52.458;9.998;2023-06-04T00:50:23;3.00;;;2.90;;
16634;SDS011;8431;52.458;9.998;2023-06-04T00:52:51;2.95;;;2.75;;
16634;SDS011;8431;52.458;9.998;2023-06-04T00:55:18;3.13;;;2.92;;
16634;SDS011;8431;52.458;9.998;2023-06-04T00:57:46;4.03;;;2.83;;
16634;SDS011;8431;52.458;9.998;2023-06-04T01:00:13;2.70;;;2.60;;
16634;SDS011;8431;52.458;9.998;2023-06-04T01:02:41;2.70;;;2.55;;
16634;SDS011;8431;52.458;9.998;2023-06-04T01:05:11;3.00;;;2.80;;
16634;SDS011;8431;52.458;9.998;2023-06-04T01:07:43;3.03;;;2.83;;
16634;SDS011;8431;52.458;9.998;2023-06-04T01:10:12;2.50;;;2.42;;
16634;SDS011;8431;52.458;9.998;2023-06-04T01:12:39;2.53;;;2.42;;
16634;SDS011;8431;52.458;9.998;2023-06-04T01:15:09;2.75;;;2.65;;
16634;SDS011;8431;52.458;9.998;2023-06-04T01:17:39;2.67;;;2.58;;
16634;SDS011;8431;52.458;9.998;2023-06-04T01:20:16;2.70;;;2.50;;
16634;SDS011;8431;52.458;9.998;2023-06-04T01:22:59;2.70;;;2.60;;
16634;SDS011;8431;52.458;9.998;2023-06-04T01:25:36;2.70;;;2.53;;
16634;SDS011;8431;52.458;9.998;2023-06-04T01:28:05;2.60;;;2.50;;
16634;SDS011;8431;52.458;9.998;2023-06-04T01:30:35;3.10;;;3.00;;
16634;SDS011;8431;52.458;9.998;2023-06-04T01:36:43;2.63;;;2.53;;
16634;SDS011;8431;52.458;9.998;2023-06-04T01:39:10;2.60;;;2.50;;
16634;SDS011;8431;52.458;9.998;2023-06-04T01:41:37;2.30;;;2.25;;
16634;SDS011;8431;52.458;9.998;2023-06-04T01:44:04;2.97;;;2.60;;
16634;SDS011;8431;52.458;9.998;2023-06-04T01:46:32;2.60;;;2.50;;
16634;SDS011;8431;52.458;9.998;2023-06-04T01:51:31;2.75;;;2.60;;
16634;SDS011;8431;52.458;9.998;2023-06-04T01:53:58;2.83;;;2.72;;
16634;SDS011;8431;52.458;9.998;2023-06-04T01:56:25;2.70;;;2.60;;
16634;SDS011;8431;52.458;9.998;2023-06-04T01:58:56;2.92;;;2.83;;
16634;SDS011;8431;52.458;9.998;2023-06-04T02:01:23;2.85;;;2.75;;
16634;SDS011;8431;52.458;9.998;2023-06-04T02:03:51;2.92;;;2.67;;
16634;SDS011;8431;52.458;9.998;2023-06-04T02:06:18;3.78;;;2.75;;
16634;SDS011;8431;52.458;9.998;2023-06-04T02:08:45;4.38;;;2.92;;
16634;SDS011;8431;52.458;9.998;2023-06-04T02:11:12;2.90;;;2.70;;
16634;SDS011;8431;52.458;9.998;2023-06-04T02:13:39;2.90;;;2.70;;
16634;SDS011;8431;52.458;9.998;2023-06-04T02:16:06;3.25;;;2.95;;
16634;SDS011;8431;52.458;9.998;2023-06-04T02:18:33;2.47;;;2.38;;
16634;SDS011;8431;52.458;9.998;2023-06-04T02:21:02;2.78;;;2.60;;
16634;SDS011;8431;52.458;9.998;2023-06-04T02:23:29;4.63;;;2.72;;
16634;SDS011;8431;52.458;9.998;2023-06-04T02:25:56;3.08;;;2.88;;
16634;SDS011;8431;52.458;9.998;2023-06-04T02:28:23;3.67;;;2.60;;
16634;SDS011;8431;52.458;9.998;2023-06-04T02:30:50;2.70;;;2.50;;
16634;SDS011;8431;52.458;9.998;2023-06-04T02:33:17;2.47;;;2.28;;
16634;SDS011;8431;52.458;9.998;2023-06-04T02:35:45;2.60;;;2.50;;
16634;SDS011;8431;52.458;9.998;2023-06-04T02:38:14;3.25;;;2.92;;
16634;SDS011;8431;52.458;9.998;2023-06-04T02:40:42;2.80;;;2.65;;
16634;SDS011;8431;52.458;9.998;2023-06-04T02:43:09;2.90;;;2.60;;
16634;SDS011;8431;52.458;9.998;2023-06-04T02:45:36;2.53;;;2.42;;
16634;SDS011;8431;52.458;9.998;2023-06-04T02:48:03;2.95;;;2.75;;
16634;SDS011;8431;52.458;9.998;2023-06-04T02:50:30;3.20;;;2.90;;
16634;SDS011;8431;52.458;9.998;2023-06-04T02:52:57;4.25;;;2.95;;
16634;SDS011;8431;52.458;9.998;2023-06-04T02:55:25;3.20;;;3.00;;
16634;SDS011;8431;52.458;9.998;2023-06-04T02:57:52;3.42;;;2.97;;
16634;SDS011;8431;52.458;9.998;2023-06-04T03:00:20;3.13;;;3.00;;
16634;SDS011;8431;52.458;9.998;2023-06-04T03:02:47;2.85;;;2.65;;
16634;SDS011;8431;52.458;9.998;2023-06-04T03:05:15;3.30;;;3.10;;
16634;SDS011;8431;52.458;9.998;2023-06-04T03:07:43;2.72;;;2.63;;
16634;SDS011;8431;52.458;9.998;2023-06-04T03:10:12;2.97;;;2.72;;
16634;SDS011;8431;52.458;9.998;2023-06-04T03:12:41;3.45;;;3.03;;
16634;SDS011;8431;52.458;9.998;2023-06-04T03:15:11;3.30;;;3.03;;
16634;SDS011;8431;52.458;9.998;2023-06-04T03:17:38;2.90;;;2.70;;
16634;SDS011;8431;52.458;9.998;2023-06-04T03:20:06;3.38;;;3.17;;
16634;SDS011;8431;52.458;9.998;2023-06-04T03:22:34;3.00;;;2.70;;
16634;SDS011;8431;52.458;9.998;2023-06-04T03:25:01;3.10;;;2.90;;
16634;SDS011;8431;52.458;9.998;2023-06-04T03:27:30;3.22;;;2.97;;
16634;SDS011;8431;52.458;9.998;2023-06-04T03:29:59;2.55;;;2.45;;
16634;SDS011;8431;52.458;9.998;2023-06-04T03:32:26;2.83;;;2.72;;
16634;SDS011;8431;52.458;9.998;2023-06-04T03:34:53;2.78;;;2.60;;
16634;SDS011;8431;52.458;9.998;2023-06-04T03:37:20;3.22;;;2.95;;
16634;SDS011;8431;52.458;9.998;2023-06-04T03:39:47;2.50;;;2.40;;
16634;SDS011;8431;52.458;9.998;2023-06-04T03:42:14;3.35;;;2.92;;
16634;SDS011;8431;52.458;9.998;2023-06-04T03:44:41;3.08;;;2.70;;
16634;SDS011;8431;52.458;9.998;2023-06-04T03:47:10;2.80;;;2.58;;
16634;SDS011;8431;52.458;9.998;2023-06-04T03:49:37;2.40;;;2.30;;
16634;SDS011;8431;52.458;9.998;2023-06-04T03:52:04;2.90;;;2.55;;
16634;SDS011;8431;52.458;9.998;2023-06-04T03:54:31;2.67;;;2.50;;
16634;SDS011;8431;52.458;9.998;2023-06-04T03:56:58;2.90;;;2.70;;
16634;SDS011;8431;52.458;9.998;2023-06-04T03:59:25;3.65;;;2.70;;
16634;SDS011;8431;52.458;9.998;2023-06-04T04:01:52;2.55;;;2.45;;
16634;SDS011;8431;52.458;9.998;2023-06-04T04:04:20;3.05;;;2.38;;
16634;SDS011;8431;52.458;9.998;2023-06-04T04:06:47;2.60;;;2.50;;
16634;SDS011;8431;52.458;9.998;2023-06-04T04:09:14;3.78;;;2.50;;
16634;SDS011;8431;52.458;9.998;2023-06-04T04:11:41;6.28;;;3.10;;
16634;SDS011;8431;52.458;9.998;2023-06-04T04:14:08;5.45;;;2.85;;
16634;SDS011;8431;52.458;9.998;2023-06-04T04:16:35;3.03;;;2.83;;
16634;SDS011;8431;52.458;9.998;2023-06-04T04:19:02;3.58;;;2.60;;
16634;SDS011;8431;52.458;9.998;2023-06-04T04:21:34;2.78;;;2.65;;
16634;SDS011;8431;52.458;9.998;2023-06-04T04:24:03;4.53;;;3.17;;
16634;SDS011;8431;52.458;9.998;2023-06-04T04:26:30;2.88;;;2.78;;
16634;SDS011;8431;52.458;9.998;2023-06-04T04:28:59;3.80;;;3.33;;
16634;SDS011;8431;52.458;9.998;2023-06-04T04:31:27;3.08;;;2.90;;
16634;SDS011;8431;52.458;9.998;2023-06-04T04:33:54;3.83;;;3.15;;
16634;SDS011;8431;52.458;9.998;2023-06-04T04:36:22;3.15;;;2.90;;
16634;SDS011;8431;52.458;9.998;2023-06-04T04:38:50;4.93;;;2.90;;
16634;SDS011;8431;52.458;9.998;2023-06-04T04:41:19;3.00;;;2.88;;
16634;SDS011;8431;52.458;9.998;2023-06-04T04:43:47;4.57;;;2.90;;
16634;SDS011;8431;52.458;9.998;2023-06-04T04:46:14;7.07;;;2.80;;
16634;SDS011;8431;52.458;9.998;2023-06-04T04:48:41;3.30;;;3.10;;
16634;SDS011;8431;52.458;9.998;2023-06-04T04:51:08;2.80;;;2.70;;
16634;SDS011;8431;52.458;9.998;2023-06-04T04:53:35;3.20;;;2.92;;
16634;SDS011;8431;52.458;9.998;2023-06-04T04:56:04;3.10;;;2.90;;
16634;SDS011;8431;52.458;9.998;2023-06-04T04:58:34;3.63;;;2.90;;
16634;SDS011;8431;52.458;9.998;2023-06-04T05:01:01;3.08;;;2.90;;
16634;SDS011;8431;52.458;9.998;2023-06-04T05:03:28;2.83;;;2.72;;
16634;SDS011;8431;52.458;9.998;2023-06-04T05:05:55;3.92;;;2.72;;
16634;SDS011;8431;52.458;9.998;2023-06-04T05:08:22;5.22;;;2.90;;
16634;SDS011;8431;52.458;9.998;2023-06-04T05:10:50;7.25;;;2.90;;
16634;SDS011;8431;52.458;9.998;2023-06-04T05:13:18;3.20;;;3.00;;
16634;SDS011;8431;52.458;9.998;2023-06-04T05:15:45;3.58;;;3.03;;
16634;SDS011;8431;52.458;9.998;2023-06-04T05:18:13;3.10;;;2.90;;
16634;SDS011;8431;52.458;9.998;2023-06-04T05:20:42;3.10;;;3.00;;
16634;SDS011;8431;52.458;9.998;2023-06-04T05:23:09;3.38;;;3.13;;
16634;SDS011;8431;52.458;9.998;2023-06-04T05:25:37;3.08;;;2.88;;
16634;SDS011;8431;52.458;9.998;2023-06-04T05:28:06;3.67;;;3.47;;
16634;SDS011;8431;52.458;9.998;2023-06-04T05:30:34;4.60;;;3.10;;
16634;SDS011;8431;52.458;9.998;2023-06-04T05:33:06;3.40;;;3.20;;
16634;SDS011;8431;52.458;9.998;2023-06-04T05:35:34;4.60;;;3.35;;
16634;SDS011;8431;52.458;9.998;2023-06-04T05:38:05;3.78;;;3.58;;
16634;SDS011;8431;52.458;9.998;2023-06-04T05:40:33;3.65;;;3.45;;
16634;SDS011;8431;52.458;9.998;2023-06-04T05:43:00;3.45;;;3.35;;
16634;SDS011;8431;52.458;9.998;2023-06-04T05:45:27;3.97;;;3.67;;
16634;SDS011;8431;52.458;9.998;2023-06-04T05:47:55;3.70;;;3.50;;
16634;SDS011;8431;52.458;9.998;2023-06-04T05:50:22;3.90;;;3.70;;
16634;SDS011;8431;52.458;9.998;2023-06-04T05:55:44;3.60;;;3.50;;
16634;SDS011;8431;52.458;9.998;2023-06-04T05:58:11;3.60;;;3.50;;
16634;SDS011;8431;52.458;9.998;2023-06-04T06:00:37;3.30;;;3.10;;
16634;SDS011;8431;52.458;9.998;2023-06-04T06:03:06;5.28;;;3.33;;
16634;SDS011;8431;52.458;9.998;2023-06-04T06:05:35;3.22;;;3.03;;
16634;SDS011;8431;52.458;9.998;2023-06-04T06:08:02;3.03;;;2.92;;
16634;SDS011;8431;52.458;9.998;2023-06-04T06:10:29;3.28;;;2.97;;
16634;SDS011;8431;52.458;9.998;2023-06-04T06:12:56;3.60;;;3.38;;
16634;SDS011;8431;52.458;9.998;2023-06-04T06:15:23;3.75;;;3.55;;
16634;SDS011;8431;52.458;9.998;2023-06-04T06:17:50;3.42;;;3.22;;
16634;SDS011;8431;52.458;9.998;2023-06-04T06:20:18;5.30;;;3.78;;
16634;SDS011;8431;52.458;9.998;2023-06-04T06:22:47;4.20;;;4.00;;
16634;SDS011;8431;52.458;9.998;2023-06-04T06:25:14;4.18;;;3.88;;
16634;SDS011;8431;52.458;9.998;2023-06-04T06:27:41;4.75;;;4.55;;
16634;SDS011;8431;52.458;9.998;2023-06-04T06:30:09;6.68;;;3.95;;
16634;SDS011;8431;52.458;9.998;2023-06-04T06:32:37;4.28;;;4.05;;
16634;SDS011;8431;52.458;9.998;2023-06-04T06:35:04;4.28;;;3.88;;
16634;SDS011;8431;52.458;9.998;2023-06-04T06:37:34;3.90;;;3.70;;
16634;SDS011;8431;52.458;9.998;2023-06-04T06:42:33;4.50;;;4.20;;
16634;SDS011;8431;52.458;9.998;2023-06-04T06:45:00;4.45;;;3.88;;
16634;SDS011;8431;52.458;9.998;2023-06-04T06:47:27;3.90;;;3.70;;
16634;SDS011;8431;52.458;9.998;2023-06-04T06:49:54;3.78;;;3.60;;
16634;SDS011;8431;52.458;9.998;2023-06-04T06:52:21;5.28;;;3.63;;
16634;SDS011;8431;52.458;9.998;2023-06-04T06:54:50;4.15;;;3.95;;
16634;SDS011;8431;52.458;9.998;2023-06-04T06:57:17;4.95;;;4.28;;
16634;SDS011;8431;52.458;9.998;2023-06-04T06:59:44;4.60;;;4.40;;
16634;SDS011;8431;52.458;9.998;2023-06-04T07:02:11;4.65;;;4.35;;
16634;SDS011;8431;52.458;9.998;2023-06-04T07:04:39;4.80;;;4.13;;
16634;SDS011;8431;52.458;9.998;2023-06-04T07:07:06;4.65;;;4.28;;
16634;SDS011;8431;52.458;9.998;2023-06-04T07:09:33;5.18;;;4.30;;
16634;SDS011;8431;52.458;9.998;2023-06-04T07:12:02;4.80;;;4.40;;
16634;SDS011;8431;52.458;9.998;2023-06-04T07:14:29;4.25;;;4.05;;
16634;SDS011;8431;52.458;9.998;2023-06-04T07:16:56;5.78;;;3.90;;
16634;SDS011;8431;52.458;9.998;2023-06-04T07:19:23;4.72;;;4.30;;
16634;SDS011;8431;52.458;9.998;2023-06-04T07:21:53;4.93;;;4.35;;
16634;SDS011;8431;52.458;9.998;2023-06-04T07:24:21;4.60;;;4.10;;
16634;SDS011;8431;52.458;9.998;2023-06-04T07:26:48;4.25;;;3.90;;
16634;SDS011;8431;52.458;9.998;2023-06-04T07:29:17;5.05;;;4.65;;
16634;SDS011;8431;52.458;9.998;2023-06-04T07:31:44;4.60;;;4.18;;
16634;SDS011;8431;52.458;9.998;2023-06-04T07:34:12;3.55;;;3.35;;
16634;SDS011;8431;52.458;9.998;2023-06-04T07:36:40;4.53;;;4.13;;
16634;SDS011;8431;52.458;9.998;2023-06-04T07:39:10;4.40;;;4.20;;
16634;SDS011;8431;52.458;9.998;2023-06-04T07:41:38;5.15;;;3.92;;
16634;SDS011;8431;52.458;9.998;2023-06-04T07:44:05;4.63;;;4.22;;
16634;SDS011;8431;52.458;9.998;2023-06-04T07:46:33;4.55;;;4.32;;
16634;SDS011;8431;52.458;9.998;2023-06-04T07:49:00;6.55;;;4.03;;
16634;SDS011;8431;52.458;9.998;2023-06-04T07:51:28;3.67;;;3.40;;
16634;SDS011;8431;52.458;9.998;2023-06-04T07:53:55;13.30;;;4.13;;
16634;SDS011;8431;52.458;9.998;2023-06-04T07:56:22;4.38;;;3.80;;
16634;SDS011;8431;52.458;9.998;2023-06-04T07:58:49;6.00;;;4.30;;
16634;SDS011;8431;52.458;9.998;2023-06-04T08:01:15;18.17;;;3.88;;
16634;SDS011;8431;52.458;9.998;2023-06-04T08:03:44;3.80;;;3.70;;
16634;SDS011;8431;52.458;9.998;2023-06-04T08:06:11;3.75;;;3.40;;
16634;SDS011;8431;52.458;9.998;2023-06-04T08:08:41;4.15;;;4.05;;
16634;SDS011;8431;52.458;9.998;2023-06-04T08:11:10;4.40;;;4.05;;
16634;SDS011;8431;52.458;9.998;2023-06-04T08:13:38;4.13;;;3.92;;
16634;SDS011;8431;52.458;9.998;2023-06-04T08:16:06;4.38;;;4.18;;
16634;SDS011;8431;52.458;9.998;2023-06-04T08:18:37;5.90;;;4.40;;
16634;SDS011;8431;52.458;9.998;2023-06-04T08:21:08;4.47;;;4.38;;
16634;SDS011;8431;52.458;9.998;2023-06-04T08:23:37;4.30;;;3.92;;
16634;SDS011;8431;52.458;9.998;2023-06-04T08:26:07;3.90;;;3.75;;
16634;SDS011;8431;52.458;9.998;2023-06-04T08:28:35;3.47;;;3.38;;
16634;SDS011;8431;52.458;9.998;2023-06-04T08:31:03;4.15;;;3.95;;
16634;SDS011;8431;52.458;9.998;2023-06-04T08:33:30;4.25;;;3.95;;
16634;SDS011;8431;52.458;9.998;2023-06-04T08:35:57;3.97;;;3.55;;
16634;SDS011;8431;52.458;9.998;2023-06-04T08:38:33;4.55;;;4.40;;
16634;SDS011;8431;52.458;9.998;2023-06-04T08:41:23;4.60;;;4.40;;
16634;SDS011;8431;52.458;9.998;2023-06-04T08:46:28;4.43;;;4.22;;
16634;SDS011;8431;52.458;9.998;2023-06-04T08:48:59;5.25;;;4.28;;
16634;SDS011;8431;52.458;9.998;2023-06-04T08:51:27;3.90;;;3.67;;
16634;SDS011;8431;52.458;9.998;2023-06-04T08:53:59;6.25;;;3.80;;
16634;SDS011;8431;52.458;9.998;2023-06-04T08:56:26;3.60;;;3.40;;
16634;SDS011;8431;52.458;9.998;2023-06-04T08:58:59;7.65;;;3.90;;
16634;SDS011;8431;52.458;9.998;2023-06-04T09:01:27;4.45;;;4.00;;
16634;SDS011;8431;52.458;9.998;2023-06-04T09:03:54;4.10;;;3.90;;
16634;SDS011;8431;52.458;9.998;2023-06-04T09:06:23;3.72;;;3.63;;
16634;SDS011;8431;52.458;9.998;2023-06-04T09:08:51;4.25;;;4.05;;
16634;SDS011;8431;52.458;9.998;2023-06-04T09:11:23;4.20;;;4.00;;
16634;SDS011;8431;52.458;9.998;2023-06-04T09:14:08;3.67;;;3.53;;
16634;SDS011;8431;52.458;9.998;2023-06-04T09:50:11;3.83;;;3.72;;
16634;SDS011;8431;52.458;9.998;2023-06-04T09:55:16;3.65;;;3.55;;
16634;SDS011;8431;52.458;9.998;2023-06-04T09:57:47;3.40;;;3.20;;
16634;SDS011;8431;52.458;9.998;2023-06-04T10:00:36;3.75;;;3.65;;
16634;SDS011;8431;52.458;9.998;2023-06-04T10:03:05;3.78;;;3.42;;
16634;SDS011;8431;52.458;9.998;2023-06-04T10:05:33;3.85;;;3.75;;
16634;SDS011;8431;52.458;9.998;2023-06-04T10:08:02;3.60;;;3.40;;
16634;SDS011;8431;52.458;9.998;2023-06-04T10:10:30;3.33;;;3.20;;
16634;SDS011;8431;52.458;9.998;2023-06-04T10:13:03;3.80;;;3.60;;
16634;SDS011;8431;52.458;9.998;2023-06-04T10:15:34;4.45;;;4.32;;
16634;SDS011;8431;52.458;9.998;2023-06-04T10:18:06;4.00;;;3.80;;
16634;SDS011;8431;52.458;9.998;2023-06-04T10:20:34;3.70;;;3.50;;
16634;SDS011;8431;52.458;9.998;2023-06-04T10:23:02;3.70;;;3.50;;
16634;SDS011;8431;52.458;9.998;2023-06-04T10:25:29;3.67;;;3.40;;
16634;SDS011;8431;52.458;9.998;2023-06-04T10:27:58;3.33;;;3.22;;
16634;SDS011;8431;52.458;9.998;2023-06-04T10:30:44;3.80;;;3.70;;
16634;SDS011;8431;52.458;9.998;2023-06-04T10:33:13;3.85;;;3.65;;
16634;SDS011;8431;52.458;9.998;2023-06-04T10:36:10;4.20;;;3.85;;
16634;SDS011;8431;52.458;9.998;2023-06-04T10:38:45;3.90;;;3.60;;
16634;SDS011;8431;52.458;9.998;2023-06-04T10:41:24;5.85;;;3.55;;
16634;SDS011;8431;52.458;9.998;2023-06-04T10:43:59;4.35;;;4.07;;
16634;SDS011;8431;52.458;9.998;2023-06-04T10:46:37;4.05;;;3.78;;
16634;SDS011;8431;52.458;9.998;2023-06-04T10:49:33;4.47;;;4.10;;
16634;SDS011;8431;52.458;9.998;2023-06-04T10:52:09;3.95;;;3.75;;
16634;SDS011;8431;52.458;9.998;2023-06-04T10:55:02;3.95;;;3.85;;
16634;SDS011;8431;52.458;9.998;2023-06-04T10:57:30;5.13;;;4.13;;
16634;SDS011;8431;52.458;9.998;2023-06-04T10:59:58;4.50;;;4.30;;
16634;SDS011;8431;52.458;9.998;2023-06-04T11:02:26;4.38;;;4.07;;
16634;SDS011;8431;52.458;9.998;2023-06-04T11:05:01;4.53;;;4.43;;
16634;SDS011;8431;52.458;9.998;2023-06-04T11:07:42;4.00;;;3.80;;
